createdAt,value
2018-08-27T00:01:44.934Z,9.60
2018-08-27T00:04:13.255Z,9.60
2018-08-27T00:06:41.860Z,9.60
2018-08-27T00:09:11.792Z,9.60
2018-08-27T00:11:40.703Z,9.60
2018-08-27T00:14:09.169Z,9.50
2018-08-27T00:16:38.146Z,9.50
2018-08-27T00:19:06.583Z,9.50
2018-08-27T00:21:34.792Z,9.40
2018-08-27T00:24:03.310Z,9.30
2018-08-27T00:26:31.706Z,9.30
2018-08-27T00:29:01.140Z,9.30
2018-08-27T00:31:29.430Z,9.40
2018-08-27T00:33:57.804Z,9.40
2018-08-27T00:36:26.127Z,9.40
2018-08-27T00:38:54.730Z,9.40
2018-08-27T00:41:23.139Z,9.40
2018-08-27T00:43:51.623Z,9.40
2018-08-27T00:46:20.134Z,9.40
2018-08-27T00:48:48.535Z,9.50
2018-08-27T00:51:16.703Z,9.40
2018-08-27T00:53:44.983Z,9.50
2018-08-27T00:56:13.102Z,9.50
2018-08-27T00:58:41.619Z,9.40
2018-08-27T01:01:10.013Z,9.40
2018-08-27T01:03:42.163Z,9.40
2018-08-27T01:06:10.500Z,9.40
2018-08-27T01:08:38.886Z,9.40
2018-08-27T01:11:07.402Z,9.40
2018-08-27T01:13:35.898Z,9.40
2018-08-27T01:16:04.432Z,9.30
2018-08-27T01:18:32.816Z,9.30
2018-08-27T01:23:54.144Z,9.20
2018-08-27T01:26:22.731Z,9.20
2018-08-27T01:28:51.025Z,9.20
2018-08-27T01:31:19.655Z,9.20
2018-08-27T01:33:48.178Z,9.20
2018-08-27T01:36:16.546Z,9.20
2018-08-27T01:38:44.853Z,9.20
2018-08-27T01:41:13.196Z,9.20
2018-08-27T01:43:41.551Z,9.20
2018-08-27T01:46:13.411Z,9.20
2018-08-27T01:48:41.714Z,9.20
2018-08-27T01:51:09.853Z,9.20
2018-08-27T01:53:37.993Z,9.20
2018-08-27T01:56:06.399Z,9.10
2018-08-27T01:58:34.693Z,9.10
2018-08-27T02:01:03.047Z,9.10
2018-08-27T02:03:31.409Z,9.00
2018-08-27T02:06:00.091Z,9.00
2018-08-27T02:08:28.385Z,9.00
2018-08-27T02:10:56.798Z,8.90
2018-08-27T02:13:25.113Z,8.90
2018-08-27T02:15:53.424Z,9.00
2018-08-27T02:18:21.800Z,8.90
2018-08-27T02:20:50.176Z,9.00
2018-08-27T02:23:18.688Z,9.00
2018-08-27T02:25:47.129Z,9.10
2018-08-27T02:28:15.386Z,9.10
2018-08-27T02:30:43.593Z,9.20
2018-08-27T02:33:12.219Z,9.20
2018-08-27T02:35:40.481Z,9.30
2018-08-27T02:38:08.986Z,9.30
2018-08-27T02:40:38.492Z,9.30
2018-08-27T02:43:07.131Z,9.40
2018-08-27T02:45:35.533Z,9.40
2018-08-27T02:48:03.932Z,9.40
2018-08-27T02:50:32.416Z,9.40
2018-08-27T02:53:00.813Z,9.40
2018-08-27T02:55:29.231Z,9.40
2018-08-27T02:57:59.713Z,9.50
2018-08-27T03:00:27.759Z,9.40
2018-08-27T03:02:56.071Z,9.40
2018-08-27T03:05:24.335Z,9.30
2018-08-27T03:07:52.745Z,9.30
2018-08-27T03:10:21.072Z,9.30
2018-08-27T03:12:49.470Z,9.20
2018-08-27T03:15:17.740Z,9.20
2018-08-27T03:17:46.169Z,9.20
2018-08-27T03:20:14.767Z,9.20
2018-08-27T03:22:43.264Z,9.10
2018-08-27T03:25:11.656Z,9.10
2018-08-27T03:27:40.163Z,9.10
2018-08-27T03:30:08.675Z,9.00
2018-08-27T03:32:37.047Z,9.00
2018-08-27T03:35:05.360Z,8.90
2018-08-27T03:37:34.479Z,8.90
2018-08-27T03:40:02.970Z,8.90
2018-08-27T03:42:31.359Z,8.90
2018-08-27T03:44:59.669Z,8.80
2018-08-27T03:47:28.283Z,8.80
2018-08-27T03:49:56.669Z,8.80
2018-08-27T03:52:25.105Z,8.80
2018-08-27T03:54:53.480Z,8.80
2018-08-27T03:57:23.104Z,8.80
2018-08-27T03:59:51.486Z,8.80
2018-08-27T04:02:19.886Z,8.80
2018-08-27T04:04:48.306Z,8.80
2018-08-27T04:07:16.702Z,8.80
2018-08-27T04:09:45.000Z,8.80
2018-08-27T04:12:13.303Z,8.90
2018-08-27T04:14:41.703Z,8.90
2018-08-27T04:17:10.130Z,9.00
2018-08-27T04:19:38.606Z,9.00
2018-08-27T04:22:07.009Z,9.00
2018-08-27T04:24:35.449Z,9.10
2018-08-27T04:27:03.797Z,9.10
2018-08-27T04:29:32.217Z,9.20
2018-08-27T04:32:00.599Z,9.30
2018-08-27T04:34:28.977Z,9.40
2018-08-27T04:36:57.581Z,9.40
2018-08-27T04:39:25.986Z,9.50
2018-08-27T04:41:54.291Z,9.60
2018-08-27T04:44:22.686Z,9.70
2018-08-27T04:46:50.992Z,9.70
2018-08-27T04:49:19.205Z,9.80
2018-08-27T04:51:47.474Z,9.90
2018-08-27T04:54:15.988Z,10.00
2018-08-27T04:56:45.646Z,10.10
2018-08-27T04:59:18.180Z,10.20
2018-08-27T05:01:46.818Z,10.30
2018-08-27T05:04:18.485Z,10.30
2018-08-27T05:06:46.992Z,10.40
2018-08-27T05:09:15.299Z,10.50
2018-08-27T05:11:43.449Z,10.60
2018-08-27T05:14:11.673Z,10.70
2018-08-27T05:16:40.276Z,10.80
2018-08-27T05:19:09.253Z,11.10
2018-08-27T05:21:38.006Z,12.30
2018-08-27T05:24:06.512Z,14.20
2018-08-27T05:26:35.111Z,16.10
2018-08-27T05:29:03.817Z,17.90
2018-08-27T05:31:32.235Z,19.60
2018-08-27T05:34:00.613Z,21.10
2018-08-27T05:36:29.121Z,22.60
2018-08-27T05:38:57.399Z,23.70
2018-08-27T05:41:25.908Z,24.40
2018-08-27T05:43:54.293Z,25.20
2018-08-27T05:46:22.506Z,26.10
2018-08-27T05:48:50.989Z,26.90
2018-08-27T05:51:19.377Z,27.60
2018-08-27T05:53:47.801Z,28.10
2018-08-27T05:56:16.419Z,28.40
2018-08-27T05:58:44.798Z,28.70
2018-08-27T06:01:13.094Z,28.90
2018-08-27T06:03:41.393Z,29.40
2018-08-27T06:06:09.888Z,30.00
2018-08-27T06:08:38.422Z,30.50
2018-08-27T06:11:06.802Z,31.10
2018-08-27T06:13:35.243Z,31.90
2018-08-27T06:16:04.208Z,32.50
2018-08-27T06:18:33.088Z,32.70
2018-08-27T06:21:01.231Z,33.00
2018-08-27T06:23:29.511Z,33.10
2018-08-27T06:25:57.953Z,33.40
2018-08-27T06:28:27.003Z,33.10
2018-08-27T06:30:55.544Z,31.40
2018-08-27T06:33:23.834Z,29.90
2018-08-27T06:35:52.227Z,28.90
2018-08-27T06:38:20.537Z,28.60
2018-08-27T06:40:48.846Z,28.10
2018-08-27T06:43:17.335Z,27.30
2018-08-27T06:45:45.868Z,26.40
2018-08-27T06:48:14.252Z,25.30
2018-08-27T06:50:42.848Z,24.40
2018-08-27T06:53:11.844Z,23.50
2018-08-27T06:55:40.132Z,22.70
2018-08-27T06:58:08.348Z,22.20
2018-08-27T07:00:36.758Z,22.10
2018-08-27T07:03:05.254Z,22.50
2018-08-27T07:05:33.636Z,23.40
2018-08-27T07:08:02.258Z,25.10
2018-08-27T07:10:30.557Z,25.90
2018-08-27T07:12:58.822Z,25.70
2018-08-27T07:15:27.279Z,25.20
2018-08-27T07:17:55.568Z,25.60
2018-08-27T07:20:24.208Z,27.60
2018-08-27T07:22:52.543Z,29.90
2018-08-27T07:25:21.059Z,32.00
2018-08-27T07:27:49.568Z,33.80
2018-08-27T07:30:17.869Z,34.70
2018-08-27T07:32:46.029Z,35.50
2018-08-27T07:35:14.342Z,36.10
2018-08-27T07:37:42.858Z,36.50
2018-08-27T07:40:11.249Z,36.90
2018-08-27T07:42:39.675Z,36.80
2018-08-27T07:45:08.822Z,36.60
2018-08-27T07:47:37.234Z,36.50
2018-08-27T07:50:06.404Z,36.40
2018-08-27T07:52:34.966Z,36.40
2018-08-27T07:55:03.383Z,36.30
2018-08-27T07:57:31.782Z,36.60
2018-08-27T08:00:00.105Z,36.80
2018-08-27T08:02:28.467Z,36.80
2018-08-27T08:04:56.769Z,36.90
2018-08-27T08:07:25.065Z,36.70
2018-08-27T08:09:53.373Z,36.70
2018-08-27T08:12:21.676Z,36.90
2018-08-27T08:14:50.367Z,37.30
2018-08-27T08:17:18.860Z,37.80
2018-08-27T08:19:47.152Z,37.50
2018-08-27T08:22:15.551Z,37.00
2018-08-27T08:24:44.557Z,37.10
2018-08-27T08:27:12.984Z,37.20
2018-08-27T08:35:26.874Z,35.60
2018-08-27T08:37:55.266Z,35.20
2018-08-27T08:40:23.656Z,34.80
2018-08-27T08:42:52.000Z,34.40
2018-08-27T08:45:20.274Z,33.80
2018-08-27T08:47:48.866Z,32.30
2018-08-27T08:50:17.264Z,30.90
2018-08-27T08:52:45.670Z,29.60
2018-08-27T08:55:14.046Z,28.60
2018-08-27T08:57:43.084Z,27.80
2018-08-27T09:00:11.472Z,27.20
2018-08-27T09:02:39.896Z,26.80
2018-08-27T09:05:08.366Z,26.50
2018-08-27T09:07:36.627Z,26.20
2018-08-27T09:10:05.079Z,26.10
2018-08-27T09:12:33.595Z,25.90
2018-08-27T09:15:02.075Z,25.60
2018-08-27T09:17:30.570Z,25.30
2018-08-27T09:19:58.845Z,25.20
2018-08-27T09:22:27.169Z,25.30
2018-08-27T09:24:55.793Z,25.30
2018-08-27T09:27:24.175Z,25.20
2018-08-27T09:29:52.579Z,24.90
2018-08-27T09:32:20.853Z,24.60
2018-08-27T09:34:49.274Z,24.40
2018-08-27T09:37:17.690Z,24.20
2018-08-27T09:39:45.963Z,24.10
2018-08-27T09:42:14.385Z,24.10
2018-08-27T09:44:42.500Z,24.10
2018-08-27T09:47:10.677Z,24.10
2018-08-27T09:49:38.979Z,24.00
2018-08-27T09:52:07.430Z,24.00
2018-08-27T09:54:35.936Z,24.20
2018-08-27T09:57:04.257Z,24.30
2018-08-27T09:59:32.605Z,24.50
2018-08-27T10:02:02.489Z,24.70
2018-08-27T10:04:30.997Z,24.70
2018-08-27T10:06:59.477Z,24.50
2018-08-27T10:09:27.888Z,24.60
2018-08-27T10:11:56.397Z,24.60
2018-08-27T10:14:24.803Z,24.80
2018-08-27T10:16:53.202Z,24.80
2018-08-27T10:19:21.471Z,24.50
2018-08-27T10:21:49.686Z,24.20
2018-08-27T10:24:17.995Z,24.00
2018-08-27T10:26:46.592Z,23.80
2018-08-27T10:29:14.850Z,23.60
2018-08-27T10:31:43.286Z,23.50
2018-08-27T10:34:11.892Z,23.50
2018-08-27T10:36:40.272Z,23.40
2018-08-27T10:39:09.245Z,23.40
2018-08-27T10:41:37.794Z,23.30
2018-08-27T10:44:06.277Z,23.10
2018-08-27T10:46:34.588Z,22.90
2018-08-27T10:49:03.001Z,22.70
2018-08-27T10:51:31.467Z,22.60
2018-08-27T10:53:59.776Z,22.40
2018-08-27T10:56:28.689Z,22.30
2018-08-27T10:58:57.193Z,22.10
2018-08-27T11:01:25.706Z,22.00
2018-08-27T11:03:54.231Z,21.90
2018-08-27T11:06:22.628Z,22.00
2018-08-27T11:08:51.359Z,22.10
2018-08-27T11:11:19.803Z,22.30
2018-08-27T11:13:48.225Z,22.50
2018-08-27T11:16:17.117Z,22.60
2018-08-27T11:18:45.524Z,22.70
2018-08-27T11:21:13.842Z,22.80
2018-08-27T11:23:42.328Z,22.90
2018-08-27T11:26:10.880Z,22.90
2018-08-27T11:28:38.966Z,22.70
2018-08-27T11:31:07.762Z,22.50
2018-08-27T11:33:36.046Z,22.30
2018-08-27T11:36:04.642Z,22.20
2018-08-27T11:38:33.043Z,22.20
2018-08-27T11:41:02.090Z,22.30
2018-08-27T11:43:30.629Z,22.30
2018-08-27T11:45:58.835Z,22.30
2018-08-27T11:48:27.170Z,22.30
2018-08-27T11:50:55.597Z,22.30
2018-08-27T11:53:23.758Z,22.10
2018-08-27T11:55:52.230Z,22.00
2018-08-27T11:58:20.560Z,21.80
2018-08-27T12:00:53.828Z,21.80
2018-08-27T12:03:22.255Z,21.80
2018-08-27T12:05:50.755Z,21.80
2018-08-27T12:08:19.153Z,22.00
2018-08-27T12:10:47.451Z,22.10
2018-08-27T12:13:15.858Z,22.10
2018-08-27T12:15:44.377Z,22.00
2018-08-27T12:18:12.635Z,22.00
2018-08-27T12:20:41.056Z,22.00
2018-08-27T12:23:09.472Z,21.90
2018-08-27T12:25:37.836Z,21.80
2018-08-27T12:28:06.454Z,21.90
2018-08-27T12:30:34.866Z,22.00
2018-08-27T12:33:03.083Z,22.00
2018-08-27T12:35:31.229Z,22.00
2018-08-27T12:37:59.746Z,22.10
2018-08-27T12:40:27.978Z,22.10
2018-08-27T12:42:56.425Z,22.20
2018-08-27T12:45:25.048Z,22.40
2018-08-27T12:47:53.538Z,22.70
2018-08-27T12:50:21.829Z,22.80
2018-08-27T12:52:50.134Z,23.00
2018-08-27T12:55:18.553Z,23.10
2018-08-27T12:57:46.937Z,23.20
2018-08-27T13:00:16.237Z,23.20
2018-08-27T13:02:46.024Z,23.00
2018-08-27T13:05:14.634Z,23.00
2018-08-27T13:07:43.519Z,23.00
2018-08-27T13:12:46.401Z,23.20
2018-08-27T13:15:14.941Z,23.30
2018-08-27T13:17:43.241Z,23.60
2018-08-27T13:20:11.911Z,23.80
2018-08-27T13:22:40.214Z,23.90
2018-08-27T13:25:08.624Z,24.00
2018-08-27T13:27:37.056Z,24.00
2018-08-27T13:30:05.584Z,24.10
2018-08-27T13:32:34.318Z,24.00
2018-08-27T13:35:02.742Z,23.90
2018-08-27T13:37:31.275Z,23.90
2018-08-27T13:39:59.780Z,24.00
2018-08-27T13:42:28.625Z,24.10
2018-08-27T13:44:57.437Z,24.20
2018-08-27T13:47:25.857Z,24.30
2018-08-27T13:49:55.169Z,24.30
2018-08-27T13:52:23.776Z,24.20
2018-08-27T13:54:52.011Z,24.20
2018-08-27T13:57:20.295Z,24.30
2018-08-27T13:59:48.741Z,24.20
2018-08-27T14:02:17.273Z,24.10
2018-08-27T14:04:45.674Z,24.00
2018-08-27T14:07:15.120Z,23.90
2018-08-27T14:09:43.608Z,23.90
2018-08-27T14:12:11.926Z,23.90
2018-08-27T14:14:40.485Z,23.80
2018-08-27T14:17:08.843Z,23.70
2018-08-27T14:19:37.569Z,23.60
2018-08-27T14:22:06.238Z,23.60
2018-08-27T14:24:34.653Z,23.50
2018-08-27T14:27:02.936Z,23.30
2018-08-27T14:29:31.232Z,23.20
2018-08-27T14:31:59.927Z,23.10
2018-08-27T14:34:28.228Z,22.90
2018-08-27T14:36:56.742Z,22.80
2018-08-27T14:39:24.913Z,22.70
2018-08-27T14:41:53.265Z,22.60
2018-08-27T14:44:21.810Z,22.60
2018-08-27T14:46:50.334Z,22.60
2018-08-27T14:49:19.185Z,22.50
2018-08-27T14:51:47.657Z,22.50
2018-08-27T14:54:16.351Z,22.60
2018-08-27T14:56:44.740Z,22.60
2018-08-27T14:59:13.027Z,22.70
2018-08-27T15:01:41.634Z,22.90
2018-08-27T15:04:09.948Z,23.10
2018-08-27T15:06:38.322Z,23.30
2018-08-27T15:09:07.256Z,23.30
2018-08-27T15:11:35.540Z,23.40
2018-08-27T15:14:03.816Z,23.40
2018-08-27T15:16:32.291Z,23.30
2018-08-27T15:19:00.968Z,23.30
2018-08-27T15:21:29.471Z,23.20
2018-08-27T15:23:58.617Z,23.10
2018-08-27T15:26:26.926Z,23.10
2018-08-27T15:28:55.471Z,23.00
2018-08-27T15:31:23.789Z,22.90
2018-08-27T15:33:52.405Z,22.70
2018-08-27T15:36:20.878Z,22.60
2018-08-27T15:38:49.626Z,22.40
2018-08-27T15:41:18.083Z,22.30
2018-08-27T15:43:46.605Z,22.20
2018-08-27T15:46:20.491Z,22.10
2018-08-27T15:48:49.143Z,22.10
2018-08-27T15:51:17.542Z,22.10
2018-08-27T15:53:46.148Z,22.10
2018-08-27T15:56:14.467Z,22.20
2018-08-27T15:58:42.788Z,22.20
2018-08-27T16:01:12.973Z,22.20
2018-08-27T16:03:42.548Z,22.20
2018-08-27T16:06:12.002Z,22.20
2018-08-27T16:08:42.171Z,22.20
2018-08-27T16:11:11.551Z,22.30
2018-08-27T16:13:40.732Z,22.30
2018-08-27T16:16:10.359Z,22.30
2018-08-27T16:18:38.814Z,22.30
2018-08-27T16:21:07.810Z,22.30
2018-08-27T16:23:36.491Z,22.30
2018-08-27T16:26:05.034Z,22.20
2018-08-27T16:28:33.467Z,22.20
2018-08-27T16:31:01.941Z,22.10
2018-08-27T16:33:30.188Z,22.00
2018-08-27T16:35:59.034Z,21.90
2018-08-27T16:38:27.329Z,21.80
2018-08-27T16:40:55.838Z,21.70
2018-08-27T16:43:24.652Z,21.60
2018-08-27T16:45:53.191Z,21.50
2018-08-27T16:48:21.640Z,21.40
2018-08-27T16:50:50.140Z,21.30
2018-08-27T16:53:18.670Z,21.30
2018-08-27T16:55:47.155Z,21.30
2018-08-27T16:58:15.758Z,21.20
2018-08-27T17:00:44.885Z,21.20
2018-08-27T17:03:13.603Z,21.10
2018-08-27T17:05:42.005Z,21.10
2018-08-27T17:08:10.154Z,21.00
2018-08-27T17:10:38.490Z,21.00
2018-08-27T17:13:07.818Z,20.90
2018-08-27T17:15:36.108Z,20.80
2018-08-27T17:18:04.480Z,20.80
2018-08-27T17:20:33.202Z,20.80
2018-08-27T17:23:01.545Z,20.80
2018-08-27T17:25:30.103Z,20.70
2018-08-27T17:27:58.391Z,20.60
2018-08-27T17:30:26.877Z,20.60
2018-08-27T17:32:55.352Z,20.50
2018-08-27T17:35:23.803Z,20.50
2018-08-27T17:37:52.178Z,20.40
2018-08-27T17:40:20.814Z,20.30
2018-08-27T17:42:50.051Z,20.10
2018-08-27T17:45:18.360Z,20.00
2018-08-27T17:47:46.920Z,20.00
2018-08-27T17:50:15.325Z,19.90
2018-08-27T17:52:43.954Z,19.80
2018-08-27T17:55:12.416Z,19.80
2018-08-27T17:57:40.817Z,19.80
2018-08-27T18:00:09.436Z,19.70
2018-08-27T18:02:37.969Z,19.70
2018-08-27T18:05:06.964Z,19.60
2018-08-27T18:07:35.437Z,19.60
2018-08-27T18:10:04.069Z,19.50
2018-08-27T18:12:32.702Z,19.50
2018-08-27T18:15:00.849Z,19.50
2018-08-27T18:17:29.255Z,19.40
2018-08-27T18:19:57.762Z,19.30
2018-08-27T18:22:26.381Z,19.30
2018-08-27T18:24:54.618Z,19.30
2018-08-27T18:27:23.602Z,19.30
2018-08-27T18:29:52.192Z,19.30
2018-08-27T18:32:20.676Z,19.20
2018-08-27T18:34:49.041Z,19.10
2018-08-27T18:37:18.499Z,19.10
2018-08-27T18:39:47.002Z,19.00
2018-08-27T18:42:15.399Z,19.00
2018-08-27T18:44:43.820Z,18.90
2018-08-27T18:47:12.326Z,18.80
2018-08-27T18:49:40.596Z,18.70
2018-08-27T18:52:08.996Z,18.70
2018-08-27T18:54:37.280Z,18.60
2018-08-27T18:57:06.050Z,18.60
2018-08-27T18:59:34.712Z,18.60
2018-08-27T19:02:03.315Z,18.50
2018-08-27T19:04:32.785Z,18.50
2018-08-27T19:07:01.244Z,18.40
2018-08-27T19:09:30.456Z,18.40
2018-08-27T19:11:59.096Z,18.30
2018-08-27T19:14:27.870Z,18.20
2018-08-27T19:16:56.456Z,18.20
2018-08-27T19:19:24.642Z,18.20
2018-08-27T19:21:52.760Z,18.20
2018-08-27T19:24:21.491Z,18.20
2018-08-27T19:26:50.019Z,18.20
2018-08-27T19:29:18.699Z,18.10
2018-08-27T19:31:47.047Z,18.10
2018-08-27T19:34:15.541Z,18.10
2018-08-27T19:36:44.076Z,18.00
2018-08-27T19:39:12.519Z,18.00
2018-08-27T19:41:40.955Z,18.00
2018-08-27T19:44:09.475Z,18.00
2018-08-27T19:46:40.233Z,17.90
2018-08-27T19:49:08.625Z,17.90
2018-08-27T19:51:37.144Z,17.80
2018-08-27T19:54:05.526Z,17.80
2018-08-27T19:56:34.061Z,17.70
2018-08-27T19:59:03.681Z,17.60
2018-08-27T20:01:32.078Z,17.60
2018-08-27T20:04:00.655Z,17.60
2018-08-27T20:06:29.050Z,17.50
2018-08-27T20:08:57.454Z,17.50
2018-08-27T20:11:25.858Z,17.50
2018-08-27T20:13:54.276Z,17.40
2018-08-27T20:16:22.901Z,17.40
2018-08-27T20:18:51.256Z,17.30
2018-08-27T20:21:19.572Z,17.30
2018-08-27T20:23:48.068Z,17.20
2018-08-27T20:26:16.482Z,17.00
2018-08-27T20:28:44.967Z,17.00
2018-08-27T20:31:13.477Z,16.90
2018-08-27T20:33:41.961Z,16.90
2018-08-27T20:36:12.518Z,16.80
2018-08-27T20:38:40.903Z,16.70
2018-08-27T20:41:09.291Z,16.60
2018-08-27T20:43:37.659Z,16.50
2018-08-27T20:46:06.098Z,16.50
2018-08-27T20:48:34.298Z,16.40
2018-08-27T20:51:02.809Z,16.40
2018-08-27T20:53:31.638Z,16.30
2018-08-27T20:56:00.121Z,16.30
2018-08-27T20:58:28.195Z,16.20
2018-08-27T21:00:57.372Z,16.10
2018-08-27T21:03:26.325Z,16.10
2018-08-27T21:05:54.850Z,16.00
2018-08-27T21:08:23.124Z,16.00
2018-08-27T21:10:51.760Z,15.90
2018-08-27T21:13:20.261Z,15.80
2018-08-27T21:15:48.728Z,15.80
2018-08-27T21:18:17.155Z,15.70
2018-08-27T21:20:45.595Z,15.70
2018-08-27T21:23:14.253Z,15.60
2018-08-27T21:25:42.879Z,15.60
2018-08-27T21:28:11.145Z,15.60
2018-08-27T21:30:39.500Z,15.50
2018-08-27T21:33:07.556Z,15.50
2018-08-27T21:35:36.154Z,15.40
2018-08-27T21:38:04.754Z,15.40
2018-08-27T21:40:33.168Z,15.40
2018-08-27T21:43:01.558Z,15.30
2018-08-27T21:45:31.060Z,15.30
2018-08-27T21:47:59.466Z,15.30
2018-08-27T21:50:27.985Z,15.30
2018-08-27T21:52:57.099Z,15.30
2018-08-27T21:55:25.603Z,15.20
2018-08-27T21:57:53.980Z,15.20
2018-08-27T22:00:22.372Z,15.20
2018-08-27T22:02:56.199Z,15.20
2018-08-27T22:05:24.597Z,15.10
2018-08-27T22:07:52.921Z,15.10
2018-08-27T22:10:22.429Z,15.00
2018-08-27T22:12:50.951Z,15.00
2018-08-27T22:15:19.522Z,15.00
2018-08-27T22:17:49.065Z,14.90
2018-08-27T22:20:17.373Z,14.90
2018-08-27T22:22:45.880Z,14.90
2018-08-27T22:25:14.382Z,14.90
2018-08-27T22:27:42.636Z,14.80
2018-08-27T22:30:11.172Z,14.80
2018-08-27T22:32:39.582Z,14.70
2018-08-27T22:35:10.223Z,14.70
2018-08-27T22:37:38.628Z,14.70
2018-08-27T22:40:07.128Z,14.60
2018-08-27T22:42:35.527Z,14.60
2018-08-27T22:45:04.012Z,14.60
2018-08-27T22:47:32.425Z,14.60
2018-08-27T22:50:00.733Z,14.60
2018-08-27T22:52:29.143Z,14.60
2018-08-27T22:54:57.533Z,14.60
2018-08-27T22:57:26.014Z,14.50
2018-08-27T22:59:54.292Z,14.50
2018-08-27T23:02:29.322Z,14.50
2018-08-27T23:04:59.199Z,14.50
2018-08-27T23:07:28.951Z,14.50
2018-08-27T23:10:00.840Z,14.50
2018-08-27T23:12:29.518Z,14.50
2018-08-27T23:14:57.912Z,14.40
2018-08-27T23:17:26.182Z,14.40
2018-08-27T23:19:56.842Z,14.40
2018-08-27T23:22:25.268Z,14.40
2018-08-27T23:24:53.890Z,14.40
2018-08-27T23:27:22.659Z,14.30
2018-08-27T23:29:50.955Z,14.40
2018-08-27T23:32:19.472Z,14.40
2018-08-27T23:34:47.978Z,14.40
2018-08-27T23:37:16.450Z,14.40
2018-08-27T23:39:45.203Z,14.40
2018-08-27T23:42:13.889Z,14.40
2018-08-27T23:44:42.187Z,14.30
2018-08-27T23:47:10.585Z,14.30
2018-08-27T23:49:38.880Z,14.40
2018-08-27T23:52:07.283Z,14.40
2018-08-27T23:54:35.573Z,14.50
2018-08-27T23:57:04.178Z,14.50
2018-08-27T23:59:32.483Z,14.50
